Time;durP1;ratioP1;P1;durP2;ratioP2;P2;SDS_P1;SDS_P2;PMS_P1;PMS_P2;Temp;Humidity;BMP_temperature;BMP_pressure;BME280_temperature;BME280_humidity;BME280_pressure;Samples;Min_cycle;Max_cycle;Signal;HPM_P1;HPM_P2
2023/08/13 00:01:30;;;;;;;0.80;0.80;;;;;;;17.55;79.91;97371.59;5020274;28;20045;-61
2023/08/13 00:03:57;;;;;;;0.77;0.77;;;;;;;17.07;80.45;97344.56;5020632;28;20343;-60
2023/08/13 00:06:25;;;;;;;0.70;0.70;;;;;;;17.28;81.08;97361.25;5020713;28;20064;-61
2023/08/13 00:08:51;;;;;;;0.70;0.70;;;;;;;17.24;81.75;97371.69;5020983;28;20309;-61
2023/08/13 00:11:18;;;;;;;0.70;0.70;;;;;;;17.32;81.23;97367.66;5018718;28;20053;-61
2023/08/13 00:13:45;;;;;;;0.70;0.70;;;;;;;17.24;81.84;97360.50;5020200;28;20685;-61
2023/08/13 00:16:11;;;;;;;0.70;0.70;;;;;;;17.17;82.39;97363.31;5020332;28;20064;-61
2023/08/13 00:18:38;;;;;;;0.80;0.80;;;;;;;17.21;81.76;97367.72;5020134;28;20057;-62
2023/08/13 00:21:05;;;;;;;0.70;0.70;;;;;;;17.17;81.93;97361.31;5020357;28;20432;-61
2023/08/13 00:23:32;;;;;;;0.70;0.70;;;;;;;17.19;81.77;97364.53;5020174;28;20069;-61
2023/08/13 00:25:58;;;;;;;0.80;0.80;;;;;;;17.15;81.89;97362.94;5020585;28;20347;-62
2023/08/13 00:28:25;;;;;;;0.73;0.73;;;;;;;17.08;82.31;97362.94;5020531;28;20076;-60
2023/08/13 00:30:54;;;;;;;0.70;0.70;;;;;;;17.15;82.01;97362.94;5018808;28;20149;-62
2023/08/13 00:33:21;;;;;;;0.70;0.70;;;;;;;17.03;82.90;97368.97;5020497;28;20062;-61
2023/08/13 00:35:50;;;;;;;0.80;0.80;;;;;;;17.09;82.35;97358.94;5019159;28;20654;-60
2023/08/13 00:38:17;;;;;;;0.70;0.70;;;;;;;16.72;81.94;97294.31;5019375;28;20053;-61
2023/08/13 00:40:44;;;;;;;0.80;0.80;;;;;;;17.00;82.54;97334.19;5021003;28;20049;-61
2023/08/13 00:43:11;;;;;;;0.70;0.70;;;;;;;16.90;81.80;97320.25;5020053;28;20073;-62
2023/08/13 00:45:37;;;;;;;0.80;0.80;;;;;;;17.05;82.22;97360.97;5020270;28;20045;-61
2023/08/13 00:48:06;;;;;;;0.77;0.77;;;;;;;16.97;82.06;97351.00;5020307;28;20215;-61
2023/08/13 00:50:33;;;;;;;0.70;0.70;;;;;;;16.58;82.54;97295.94;5019926;28;20041;-61
2023/08/13 00:53:00;;;;;;;0.80;0.80;;;;;;;16.84;82.37;97352.63;5019698;28;20053;-61
2023/08/13 00:55:27;;;;;;;0.70;0.70;;;;;;;16.90;82.93;97367.81;5019833;28;20116;-62
2023/08/13 00:57:54;;;;;;;0.70;0.70;;;;;;;16.82;83.63;97411.00;5023685;28;20049;-61
2023/08/13 01:00:21;;;;;;;0.70;0.70;;;;;;;16.83;83.48;97362.22;5039945;28;20053;-61
2023/08/13 01:02:48;;;;;;;0.65;0.65;;;;;;;16.88;83.16;97362.63;5054717;28;20551;-61
2023/08/13 01:05:15;;;;;;;0.70;0.70;;;;;;;16.52;83.50;97314.34;5038091;28;20238;-61
2023/08/13 01:07:53;;;;;;;0.70;0.70;;;;;;;16.85;83.77;97359.84;5039711;28;20045;-60
2023/08/13 01:10:36;;;;;;;0.70;0.70;;;;;;;16.53;83.49;97315.13;5040271;28;20507;-60
2023/08/13 01:13:06;;;;;;;;;;;;;;;16.73;83.84;97368.63;5056432;28;20053;-60
2023/08/13 01:15:38;;;;;;;0.70;0.70;;;;;;;16.52;84.78;97361.88;5044034;28;20390;-60
2023/08/13 01:18:07;;;;;;;0.70;0.70;;;;;;;16.54;85.25;97356.69;5043701;28;20076;-60
2023/08/13 01:20:38;;;;;;;0.70;0.70;;;;;;;16.47;85.51;97356.69;5042021;28;20057;-61
2023/08/13 01:23:05;;;;;;;0.77;0.77;;;;;;;16.43;85.16;97341.88;5032706;28;20045;-62
2023/08/13 01:25:33;;;;;;;0.70;0.70;;;;;;;16.52;85.51;97359.09;5023334;28;20527;-60
2023/08/13 01:28:28;;;;;;;0.70;0.70;;;;;;;16.51;85.38;97360.28;5023863;28;20053;-60
2023/08/13 01:31:01;;;;;;;0.70;0.70;;;;;;;16.32;85.94;97331.91;5024051;28;20219;-61
2023/08/13 01:33:33;;;;;;;0.70;0.70;;;;;;;16.41;86.46;97355.47;5023693;28;20112;-62
2023/08/13 01:36:05;;;;;;;0.70;0.70;;;;;;;16.46;85.58;97355.09;5021802;28;20551;-60
2023/08/13 01:38:33;;;;;;;0.60;0.60;;;;;;;16.51;85.78;97363.09;5023299;28;20057;-60
2023/08/13 01:41:04;;;;;;;0.70;0.70;;;;;;;16.44;85.78;97357.50;5038403;28;20539;-61
2023/08/13 01:43:31;;;;;;;0.65;0.65;;;;;;;16.54;85.99;97362.28;5023223;28;20053;-62
2023/08/13 01:46:00;;;;;;;0.70;0.70;;;;;;;16.63;85.70;97358.28;5023954;28;20049;-62
2023/08/13 01:48:27;;;;;;;0.70;0.70;;;;;;;16.49;85.66;97337.50;5023607;28;20041;-62
2023/08/13 01:50:53;;;;;;;0.70;0.70;;;;;;;16.74;84.91;97356.25;5023060;28;20051;-61
2023/08/13 01:53:20;;;;;;;0.70;0.70;;;;;;;16.72;84.72;97359.47;5022945;28;20528;-61
2023/08/13 01:55:47;;;;;;;0.70;0.70;;;;;;;16.75;84.88;97349.44;5023156;28;20050;-61
2023/08/13 01:58:13;;;;;;;0.60;0.60;;;;;;;16.72;84.69;97336.28;5028319;28;20137;-62
2023/08/13 02:00:40;;;;;;;0.77;0.77;;;;;;;16.83;84.14;97351.03;5042671;28;20574;-61
2023/08/13 02:03:07;;;;;;;0.70;0.70;;;;;;;16.81;83.26;97353.44;5042859;28;20466;-61
2023/08/13 02:05:33;;;;;;;0.70;0.70;;;;;;;16.61;83.73;97351.06;5042558;28;20075;-61
2023/08/13 02:08:00;;;;;;;0.73;0.73;;;;;;;16.60;83.95;97346.69;5057648;28;20515;-62
2023/08/13 02:10:27;;;;;;;0.70;0.70;;;;;;;16.70;84.01;97355.44;5041046;28;20053;-61
2023/08/13 02:12:53;;;;;;;0.70;0.70;;;;;;;16.63;84.10;97352.69;5040682;28;20053;-61
2023/08/13 02:15:20;;;;;;;0.70;0.70;;;;;;;16.56;84.78;97351.50;5042046;28;20057;-62
2023/08/13 02:17:47;;;;;;;0.70;0.70;;;;;;;16.57;84.65;97361.47;5041221;28;20064;-61
2023/08/13 02:20:14;;;;;;;0.70;0.70;;;;;;;16.43;85.48;97360.66;5042703;28;20079;-60
2023/08/13 02:22:40;;;;;;;0.63;0.63;;;;;;;16.52;85.61;97359.09;5042934;28;20445;-61
2023/08/13 02:25:07;;;;;;;0.70;0.70;;;;;;;16.10;85.25;97286.41;5041193;28;20061;-61
2023/08/13 02:27:34;;;;;;;0.70;0.70;;;;;;;16.00;85.12;97264.03;5057733;28;20553;-61
2023/08/13 02:30:02;;;;;;;0.70;0.70;;;;;;;16.20;85.23;97302.34;5058231;28;20059;-62
2023/08/13 02:32:29;;;;;;;0.70;0.70;;;;;;;16.64;85.09;97372.63;5043209;28;20045;-62
2023/08/13 02:34:56;;;;;;;0.80;0.80;;;;;;;16.59;84.35;97370.28;5043144;28;20060;-62
2023/08/13 02:37:22;;;;;;;0.63;0.63;;;;;;;16.25;84.40;97337.50;5040951;28;20049;-60
2023/08/13 02:39:49;;;;;;;0.70;0.70;;;;;;;16.60;84.14;97355.06;5040871;28;20248;-61
2023/08/13 02:42:16;;;;;;;0.70;0.70;;;;;;;16.12;84.49;97311.94;5041969;28;20045;-62
2023/08/13 02:44:42;;;;;;;0.70;0.70;;;;;;;16.45;84.69;97352.69;5041977;28;20065;-64
2023/08/13 02:47:09;;;;;;;0.73;0.73;;;;;;;16.43;85.42;97369.84;5041823;28;20664;-62
2023/08/13 02:49:36;;;;;;;0.70;0.70;;;;;;;16.44;86.11;97374.28;5041839;28;20040;-63
2023/08/13 02:52:03;;;;;;;0.70;0.70;;;;;;;16.52;85.66;97375.06;5041681;28;20053;-62
2023/08/13 02:54:29;;;;;;;0.70;0.70;;;;;;;16.50;85.80;97372.66;5042031;28;20052;-63
2023/08/13 02:56:56;;;;;;;0.70;0.70;;;;;;;16.36;86.71;97364.25;5042195;28;20048;-63
2023/08/13 02:59:23;;;;;;;0.70;0.70;;;;;;;16.41;86.65;97380.63;5041958;28;20056;-62
2023/08/13 03:01:49;;;;;;;0.70;0.70;;;;;;;16.24;87.52;97375.03;5022125;28;20571;-63
2023/08/13 03:04:16;;;;;;;0.70;0.70;;;;;;;16.19;87.97;97379.03;5022603;28;20432;-62
2023/08/13 03:06:43;;;;;;;0.70;0.70;;;;;;;16.22;87.93;97375.44;5021526;28;20045;-60
2023/08/13 03:09:19;;;;;;;0.70;0.70;;;;;;;15.91;87.53;97342.69;5022590;28;20065;-63
2023/08/13 03:11:46;;;;;;;0.70;0.70;;;;;;;16.22;87.21;97372.66;5021509;28;20148;-62
2023/08/13 03:14:13;;;;;;;0.70;0.70;;;;;;;16.09;88.37;97368.63;5022449;28;20060;-62
2023/08/13 03:16:40;;;;;;;0.70;0.70;;;;;;;16.18;88.60;97376.66;5022513;28;20405;-63
2023/08/13 03:19:07;;;;;;;0.63;0.63;;;;;;;16.13;89.01;97375.03;5021969;28;20115;-64
2023/08/13 03:21:33;;;;;;;0.60;0.60;;;;;;;16.17;88.63;97375.84;5021858;28;20045;-62
2023/08/13 03:24:00;;;;;;;0.70;0.70;;;;;;;16.13;89.07;97380.63;5021921;28;20183;-61
2023/08/13 03:26:27;;;;;;;0.60;0.60;;;;;;;16.00;88.75;97359.06;5020292;28;20822;-63
2023/08/13 03:28:53;;;;;;;0.60;0.60;;;;;;;16.07;88.68;97379.44;5021978;28;20514;-62
2023/08/13 03:31:20;;;;;;;0.70;0.70;;;;;;;16.07;88.69;97376.66;5021719;28;20435;-62
2023/08/13 03:33:47;;;;;;;0.70;0.70;;;;;;;16.08;89.09;97383.00;5020166;28;20046;-62
2023/08/13 03:36:13;;;;;;;0.70;0.70;;;;;;;15.97;89.38;97377.41;5020960;28;20061;-62
2023/08/13 03:38:40;;;;;;;0.70;0.70;;;;;;;15.95;90.12;97374.22;5021319;28;20597;-63
2023/08/13 03:41:07;;;;;;;0.70;0.70;;;;;;;16.02;89.97;97391.00;5020991;28;20519;-60
2023/08/13 03:43:33;;;;;;;0.60;0.60;;;;;;;16.08;89.32;97383.81;5020885;28;20045;-60
2023/08/13 03:46:01;;;;;;;0.60;0.60;;;;;;;16.19;88.13;97383.81;5021046;28;20072;-61
2023/08/13 03:48:28;;;;;;;0.70;0.70;;;;;;;16.19;87.56;97390.22;5020930;28;20428;-60
2023/08/13 03:50:55;;;;;;;0.70;0.70;;;;;;;16.09;88.51;97388.19;5021071;28;20046;-60
2023/08/13 03:53:24;;;;;;;0.60;0.60;;;;;;;16.09;88.29;97384.63;5019241;28;20045;-60
2023/08/13 03:55:51;;;;;;;0.70;0.70;;;;;;;16.17;88.41;97389.81;5020500;28;20063;-60
2023/08/13 03:58:18;;;;;;;0.60;0.60;;;;;;;16.26;88.09;97393.03;5024893;28;20163;-60
2023/08/13 04:00:45;;;;;;;0.80;0.80;;;;;;;16.34;87.51;97396.63;5055772;28;20049;-62
2023/08/13 04:03:12;;;;;;;0.70;0.70;;;;;;;16.34;87.48;97391.03;5040403;28;20053;-62
2023/08/13 04:05:52;;;;;;;0.70;0.70;;;;;;;16.08;87.19;97355.06;5040058;28;20053;-62
2023/08/13 04:08:18;;;;;;;0.70;0.70;;;;;;;16.44;87.84;97391.03;5040211;28;20179;-61
2023/08/13 04:10:45;;;;;;;0.63;0.63;;;;;;;16.52;87.51;97395.44;5040612;28;20052;-61
2023/08/13 04:13:12;;;;;;;0.70;0.70;;;;;;;16.33;87.57;97356.66;5055116;28;20565;-62
2023/08/13 04:15:38;;;;;;;0.70;0.70;;;;;;;16.73;87.47;97407.81;5040016;28;20049;-63
2023/08/13 04:18:06;;;;;;;0.70;0.70;;;;;;;16.84;86.81;97402.97;5038966;28;20056;-62
2023/08/13 04:20:35;;;;;;;0.70;0.70;;;;;;;16.86;86.71;97407.00;5040674;28;20143;-60
2023/08/13 04:23:02;;;;;;;0.70;0.70;;;;;;;16.99;86.35;97410.16;5040410;28;20049;-60
2023/08/13 04:25:28;;;;;;;0.70;0.70;;;;;;;17.15;85.47;97407.72;5038609;28;20423;-60
2023/08/13 04:27:55;;;;;;;0.77;0.77;;;;;;;17.13;86.07;97410.13;5040209;28;20071;-61
2023/08/13 04:30:22;;;;;;;0.70;0.70;;;;;;;17.24;85.21;97410.91;5026665;28;20046;-61
2023/08/13 04:32:56;;;;;;;0.70;0.70;;;;;;;17.37;84.53;97398.84;5000789;28;20041;-61
2023/08/13 04:35:24;;;;;;;0.80;0.80;;;;;;;17.46;83.50;97406.84;5000496;28;20091;-62
2023/08/13 04:37:51;;;;;;;0.70;0.70;;;;;;;17.69;83.15;97402.34;5000679;28;20049;-62
2023/08/13 04:40:18;;;;;;;0.80;0.80;;;;;;;17.82;82.72;97399.84;5000334;28;20232;-63
2023/08/13 04:42:45;;;;;;;0.70;0.70;;;;;;;17.90;82.18;97399.41;5000705;28;20061;-62
2023/08/13 04:45:12;;;;;;;0.70;0.70;;;;;;;17.39;81.54;97308.81;5000242;28;20049;-61
2023/08/13 04:47:40;;;;;;;0.80;0.80;;;;;;;18.02;81.41;97400.94;5002257;28;20128;-62
2023/08/13 04:50:09;;;;;;;0.75;0.75;;;;;;;18.13;81.08;97401.66;5004751;28;20050;-62
2023/08/13 04:52:36;;;;;;;0.80;0.80;;;;;;;18.33;80.08;97399.94;5004284;28;20104;-61
2023/08/13 04:55:03;;;;;;;0.70;0.70;;;;;;;18.16;78.96;97355.19;5002681;28;20054;-61
2023/08/13 04:57:30;;;;;;;0.77;0.77;;;;;;;18.44;78.24;97378.22;5002374;28;20050;-61
2023/08/13 04:59:58;;;;;;;0.80;0.80;;;;;;;18.70;77.88;97391.63;5034760;28;20064;-63
2023/08/13 05:02:25;;;;;;;0.80;0.80;;;;;;;18.82;77.18;97393.91;5043724;28;20126;-64
2023/08/13 05:04:53;;;;;;;0.80;0.80;;;;;;;18.92;77.32;97398.63;5043847;28;20114;-62
2023/08/13 05:07:20;;;;;;;0.80;0.80;;;;;;;18.73;75.62;97343.06;5043659;28;20059;-59
2023/08/13 05:09:48;;;;;;;0.80;0.80;;;;;;;19.30;75.12;97400.25;5043954;28;20060;-61
2023/08/13 05:12:14;;;;;;;0.80;0.80;;;;;;;19.43;74.01;97412.53;5043754;28;20538;-63
2023/08/13 05:14:42;;;;;;;0.80;0.80;;;;;;;19.54;74.23;97407.59;5043453;28;20052;-61
2023/08/13 05:17:19;;;;;;;0.90;0.90;;;;;;;19.74;74.64;97449.09;5058352;28;20059;-63
2023/08/13 05:19:46;;;;;;;0.80;0.80;;;;;;;17.60;72.99;97031.38;5043920;28;20052;-61
2023/08/13 05:22:14;;;;;;;0.90;0.90;;;;;;;20.13;71.09;97388.31;5042366;28;20540;-61
2023/08/13 05:24:41;;;;;;;0.80;0.80;;;;;;;20.34;70.39;97390.03;5043180;28;20531;-61
2023/08/13 05:27:08;;;;;;;0.88;0.88;;;;;;;20.65;69.90;97397.16;5043215;28;20060;-62
2023/08/13 05:29:35;;;;;;;0.80;0.80;;;;;;;20.54;69.82;97365.56;5043889;28;20068;-62
2023/08/13 05:32:02;;;;;;;0.80;0.80;;;;;;;21.05;68.91;97410.16;5043904;28;20049;-63
2023/08/13 05:34:28;;;;;;;0.80;0.80;;;;;;;20.95;67.56;97349.13;5044100;28;20469;-63
2023/08/13 05:36:55;;;;;;;0.88;0.88;;;;;;;21.25;67.92;97396.88;5044277;28;20392;-62
2023/08/13 05:39:22;;;;;;;0.90;0.90;;;;;;;21.16;67.95;97365.66;5044841;28;20446;-62
2023/08/13 05:41:49;;;;;;;0.98;0.98;;;;;;;21.67;66.81;97403.72;5044371;28;20144;-60
2023/08/13 05:44:16;;;;;;;0.90;0.90;;;;;;;21.78;66.08;97396.63;5044265;28;20498;-61
2023/08/13 05:46:42;;;;;;;0.90;0.90;;;;;;;21.74;65.69;97361.25;5059624;28;20071;-63
2023/08/13 05:49:09;;;;;;;1.00;1.00;;;;;;;21.90;64.59;97359.31;5044896;28;20498;-61
2023/08/13 05:51:36;;;;;;;1.00;1.00;;;;;;;21.94;64.80;97343.06;5044266;28;20053;-62
2023/08/13 05:54:03;;;;;;;1.00;1.00;;;;;;;22.48;63.90;97389.38;5044302;28;20061;-61
2023/08/13 05:56:29;;;;;;;0.95;0.95;;;;;;;22.55;63.97;97387.63;5043418;28;20049;-61
2023/08/13 05:58:56;;;;;;;0.90;0.90;;;;;;;22.72;63.25;97380.75;5035902;28;20045;-62
2023/08/13 06:01:23;;;;;;;1.10;1.10;;;;;;;22.86;62.27;97384.00;5023296;28;20448;-62
2023/08/13 06:03:49;;;;;;;1.10;1.10;;;;;;;23.03;62.15;97384.78;5021582;28;20885;-62
2023/08/13 06:06:16;;;;;;;0.90;0.90;;;;;;;23.20;61.02;97389.16;5021783;28;20104;-62
2023/08/13 06:08:43;;;;;;;1.00;1.00;;;;;;;23.34;60.27;97363.34;5023322;28;20053;-62
2023/08/13 06:11:10;;;;;;;1.10;1.10;;;;;;;23.44;58.89;97387.72;5022631;28;20056;-61
2023/08/13 06:13:38;;;;;;;1.00;1.00;;;;;;;23.69;57.03;97387.81;5021376;28;20140;-61
2023/08/13 06:16:06;;;;;;;1.00;1.00;;;;;;;23.50;56.33;97354.81;5022734;28;20151;-61
2023/08/13 06:18:34;;;;;;;1.10;1.10;;;;;;;24.04;55.49;97388.81;5022324;28;20054;-61
2023/08/13 06:21:03;;;;;;;1.05;1.05;;;;;;;24.24;53.92;97390.19;5022371;28;20076;-62
2023/08/13 06:23:30;;;;;;;1.17;1.17;;;;;;;24.15;52.29;97336.28;5021965;28;20080;-62
2023/08/13 06:25:57;;;;;;;1.20;1.20;;;;;;;24.60;52.18;97390.63;5023137;28;20108;-62
2023/08/13 06:28:24;;;;;;;1.20;1.20;;;;;;;24.88;51.21;97383.28;5022441;28;20049;-61
2023/08/13 06:30:50;;;;;;;1.30;1.30;;;;;;;24.69;52.02;97396.44;5023560;28;20053;-62
2023/08/13 06:33:17;;;;;;;1.10;1.10;;;;;;;25.00;50.81;97393.78;5023963;28;20485;-62
2023/08/13 06:35:46;;;;;;;1.30;1.30;;;;;;;25.24;51.40;97395.75;5023608;28;20471;-61
2023/08/13 06:38:14;;;;;;;1.20;1.20;;;;;;;25.10;49.73;97345.22;5023316;28;20049;-61
2023/08/13 06:40:41;;;;;;;1.17;1.17;;;;;;;25.28;48.88;97355.91;5023279;28;20080;-60
2023/08/13 06:43:08;;;;;;;1.30;1.30;;;;;;;25.64;48.96;97390.28;5021827;28;20049;-61
2023/08/13 06:45:35;;;;;;;1.30;1.30;;;;;;;25.85;49.23;97380.97;5021866;28;20049;-62
2023/08/13 06:48:04;;;;;;;1.50;1.50;;;;;;;26.08;48.97;97385.41;5023066;28;20250;-62
2023/08/13 06:50:31;;;;;;;1.35;1.35;;;;;;;25.26;49.27;97356.38;5023113;28;20578;-62
2023/08/13 06:52:58;;;;;;;1.30;1.30;;;;;;;25.42;49.50;97355.44;5023505;28;20326;-62
2023/08/13 06:55:25;;;;;;;1.27;1.27;;;;;;;25.97;48.51;97385.78;5022540;28;20049;-62
2023/08/13 06:57:51;;;;;;;1.45;1.45;;;;;;;26.14;46.02;97375.03;5022490;28;20063;-61
2023/08/13 07:00:20;;;;;;;1.42;1.42;;;;;;;25.99;43.41;97376.78;5038306;28;20579;-61
2023/08/13 07:02:57;;;;;;;1.30;1.30;;;;;;;26.13;42.19;97381.97;5042395;28;20057;-62
2023/08/13 07:05:24;;;;;;;1.50;1.50;;;;;;;25.79;41.83;97373.53;5042305;28;20084;-61
2023/08/13 07:07:51;;;;;;;1.30;1.30;;;;;;;25.52;42.61;97336.44;5042093;28;20060;-62
2023/08/13 07:10:18;;;;;;;1.40;1.40;;;;;;;25.66;41.49;97381.31;5042379;28;20529;-61
2023/08/13 07:12:44;;;;;;;1.40;1.40;;;;;;;26.10;42.73;97380.03;5043105;28;20059;-61
2023/08/13 07:15:11;;;;;;;1.30;1.30;;;;;;;26.35;42.98;97377.03;5042424;28;20135;-64
2023/08/13 07:17:38;;;;;;;1.30;1.30;;;;;;;26.63;42.50;97381.56;5041584;28;20303;-61
2023/08/13 07:20:09;;;;;;;1.38;1.38;;;;;;;26.77;41.79;97372.47;5043241;28;20084;-61
2023/08/13 07:22:39;;;;;;;1.35;1.35;;;;;;;26.75;40.64;97377.84;5042666;28;20152;-62
2023/08/13 07:25:06;;;;;;;1.30;1.30;;;;;;;26.48;41.19;97372.81;5042838;28;20052;-62
2023/08/13 07:27:33;;;;;;;1.60;1.60;;;;;;;26.35;41.62;97377.03;5041123;28;20053;-61
2023/08/13 07:30:00;;;;;;;1.33;1.33;;;;;;;26.32;41.67;97380.81;5042874;28;20056;-62
2023/08/13 07:32:28;;;;;;;1.42;1.42;;;;;;;26.60;41.29;97365.44;5042326;28;20077;-63
2023/08/13 07:34:55;;;;;;;1.38;1.38;;;;;;;26.99;41.29;97372.34;5041073;28;20053;-62
2023/08/13 07:37:22;;;;;;;1.50;1.50;;;;;;;27.16;41.82;97368.75;5057279;28;20503;-63
2023/08/13 07:39:51;;;;;;;1.40;1.40;;;;;;;26.72;41.29;97367.41;5042209;28;20053;-62
2023/08/13 07:42:18;;;;;;;1.83;1.83;;;;;;;26.72;42.65;97361.72;5042107;28;20056;-61
2023/08/13 07:44:45;;;;;;;1.60;1.60;;;;;;;26.64;42.74;97377.47;5040747;28;20131;-62
2023/08/13 07:47:11;;;;;;;1.42;1.42;;;;;;;26.54;43.72;97356.72;5041710;28;20045;-61
2023/08/13 07:49:38;;;;;;;1.30;1.30;;;;;;;27.06;42.44;97357.84;5040043;28;20048;-62
2023/08/13 07:52:05;;;;;;;1.30;1.30;;;;;;;26.69;41.69;97371.19;5039860;28;20041;-65
2023/08/13 07:54:32;;;;;;;1.35;1.35;;;;;;;26.92;42.42;97369.84;5056907;28;20059;-62
2023/08/13 07:56:58;;;;;;;1.35;1.35;;;;;;;26.91;41.66;97368.22;5040356;28;20136;-63
2023/08/13 07:59:25;;;;;;;1.40;1.40;;;;;;;27.06;40.93;97364.34;5047064;28;20053;-62
2023/08/13 08:01:52;;;;;;;1.58;1.58;;;;;;;26.76;42.18;97368.06;5021833;28;20128;-63
2023/08/13 08:04:18;;;;;;;1.50;1.50;;;;;;;26.71;41.46;97365.84;5022058;28;20045;-64
2023/08/13 08:06:45;;;;;;;1.40;1.40;;;;;;;26.89;41.61;97368.69;5021610;28;20057;-62
2023/08/13 08:09:12;;;;;;;1.50;1.50;;;;;;;26.95;41.92;97364.00;5020494;28;20556;-63
2023/08/13 08:11:38;;;;;;;1.40;1.40;;;;;;;26.47;41.08;97296.56;5020348;28;20527;-63
2023/08/13 08:14:05;;;;;;;1.50;1.50;;;;;;;26.56;40.48;97367.63;5019433;28;20084;-64
2023/08/13 08:16:32;;;;;;;1.50;1.50;;;;;;;27.16;41.02;97357.38;5021610;28;20053;-63
2023/08/13 08:18:59;;;;;;;1.50;1.50;;;;;;;26.98;40.96;97311.88;5019930;28;20049;-64
2023/08/13 08:21:26;;;;;;;1.52;1.52;;;;;;;27.54;39.96;97359.78;5021549;28;20081;-63
2023/08/13 08:23:52;;;;;;;1.48;1.48;;;;;;;27.97;39.12;97354.53;5021643;28;20049;-62
2023/08/13 08:26:19;;;;;;;1.80;1.80;;;;;;;27.78;39.23;97329.38;5020978;28;20504;-63
2023/08/13 08:28:46;;;;;;;1.40;1.40;;;;;;;27.82;38.56;97339.34;5021319;28;20049;-63
2023/08/13 08:31:12;;;;;;;1.60;1.60;;;;;;;27.48;39.94;97339.72;5020841;28;20045;-64
2023/08/13 08:33:39;;;;;;;1.60;1.60;;;;;;;27.55;39.07;97330.06;5021195;28;20053;-65
2023/08/13 08:36:06;;;;;;;1.70;1.70;;;;;;;27.66;39.04;97339.69;5020375;28;20045;-63
2023/08/13 08:38:33;;;;;;;1.48;1.48;;;;;;;27.43;38.79;97309.03;5021914;28;20087;-62
2023/08/13 08:40:59;;;;;;;1.58;1.58;;;;;;;27.76;39.75;97337.59;5021499;28;20049;-62
2023/08/13 08:43:33;;;;;;;1.70;1.70;;;;;;;27.77;40.06;97327.81;5021204;28;20057;-62
2023/08/13 08:46:01;;;;;;;1.60;1.60;;;;;;;28.06;40.35;97331.72;5021467;28;20058;-63
2023/08/13 08:48:29;;;;;;;1.63;1.63;;;;;;;28.43;39.69;97328.72;5021498;28;20482;-62
2023/08/13 08:50:56;;;;;;;1.70;1.70;;;;;;;28.64;38.76;97327.72;5020192;28;20500;-64
2023/08/13 08:53:24;;;;;;;1.80;1.80;;;;;;;28.41;38.99;97334.13;5019852;28;20156;-63
2023/08/13 08:55:52;;;;;;;1.63;1.63;;;;;;;28.46;37.65;97293.56;5009045;28;20452;-62
2023/08/13 08:58:20;;;;;;;1.95;1.95;;;;;;;28.45;39.30;97332.69;5001522;28;20535;-62
2023/08/13 09:00:47;;;;;;;1.60;1.60;;;;;;;28.44;39.22;97330.31;5040937;28;20052;-61
2023/08/13 09:03:13;;;;;;;1.45;1.45;;;;;;;28.10;39.21;97334.41;5041006;28;20056;-62
2023/08/13 09:05:41;;;;;;;1.30;1.30;;;;;;;27.47;39.68;97247.06;5041072;28;20078;-62
2023/08/13 09:08:13;;;;;;;1.60;1.60;;;;;;;27.70;39.32;97328.94;5039389;28;20542;-62
2023/08/13 09:10:43;;;;;;;1.60;1.60;;;;;;;28.36;39.23;97329.09;5040099;28;20136;-62
2023/08/13 09:13:11;;;;;;;1.52;1.52;;;;;;;28.20;39.09;97292.44;5040917;28;20057;-63
2023/08/13 09:15:57;;;;;;;1.60;1.60;;;;;;;28.41;38.77;97336.97;5041202;28;20136;-62
2023/08/13 09:18:24;;;;;;;1.45;1.45;;;;;;;28.15;38.62;97280.41;5041168;28;20045;-62
2023/08/13 09:20:51;;;;;;;1.77;1.77;;;;;;;28.35;39.48;97338.91;5041250;28;20483;-62
2023/08/13 09:23:22;;;;;;;1.70;1.70;;;;;;;27.93;39.34;97325.41;5039737;28;20049;-62
2023/08/13 09:25:53;;;;;;;1.73;1.73;;;;;;;28.26;38.95;97319.78;5040399;28;20503;-62
2023/08/13 09:28:20;;;;;;;1.63;1.63;;;;;;;28.31;39.07;97321.19;5040703;28;20053;-62
2023/08/13 09:30:48;;;;;;;1.55;1.55;;;;;;;27.94;38.94;97309.94;5040767;28;20056;-62
2023/08/13 09:33:16;;;;;;;1.48;1.48;;;;;;;27.78;39.26;97318.00;5040804;28;20516;-63
2023/08/13 09:35:44;;;;;;;1.60;1.60;;;;;;;27.58;39.12;97320.56;5043706;28;20083;-62
2023/08/13 09:38:11;;;;;;;1.63;1.63;;;;;;;27.96;38.62;97321.63;5043176;28;20057;-62
2023/08/13 09:40:38;;;;;;;1.67;1.67;;;;;;;27.63;37.77;97275.16;5044424;28;20057;-64
2023/08/13 09:43:09;;;;;;;1.83;1.83;;;;;;;28.09;37.28;97281.53;5044230;28;20060;-61
2023/08/13 09:45:36;;;;;;;1.60;1.60;;;;;;;28.43;37.14;97317.31;5042921;28;20500;-62
2023/08/13 09:48:04;;;;;;;1.40;1.40;;;;;;;27.94;37.74;97321.31;5042198;28;20055;-62
2023/08/13 09:50:40;;;;;;;1.40;1.40;;;;;;;27.87;38.64;97320.81;5042191;28;20464;-62
2023/08/13 09:53:14;;;;;;;1.33;1.33;;;;;;;27.75;38.67;97319.75;5036734;28;20472;-61
2023/08/13 09:55:54;;;;;;;1.60;1.60;;;;;;;27.71;39.67;97313.41;5021904;28;20054;-62
2023/08/13 09:58:22;;;;;;;1.60;1.60;;;;;;;27.56;39.75;97311.72;5023765;28;20052;-63
2023/08/13 10:00:49;;;;;;;1.52;1.52;;;;;;;26.69;38.82;97118.19;5041898;28;20131;-62
2023/08/13 10:03:19;;;;;;;1.75;1.75;;;;;;;28.17;37.24;97283.56;5044207;28;20053;-61
2023/08/13 10:05:47;;;;;;;1.33;1.33;;;;;;;28.46;36.15;97316.34;5042624;28;20061;-61
2023/08/13 10:08:14;;;;;;;1.50;1.50;;;;;;;27.87;37.06;97315.13;5043953;28;20119;-61
2023/08/13 10:10:42;;;;;;;1.63;1.63;;;;;;;27.95;38.12;97311.50;5043252;28;20055;-62
2023/08/13 10:13:09;;;;;;;1.50;1.50;;;;;;;28.64;36.84;97322.00;5041689;28;20821;-61
2023/08/13 10:15:38;;;;;;;1.73;1.73;;;;;;;28.86;37.51;97282.56;5043036;28;20056;-62
2023/08/13 10:18:05;;;;;;;1.70;1.70;;;;;;;29.26;34.49;97271.53;5043654;28;20091;-61
2023/08/13 10:20:32;;;;;;;1.83;1.83;;;;;;;29.99;35.10;97295.22;5043473;28;20537;-61
2023/08/13 10:23:01;;;;;;;1.65;1.65;;;;;;;29.43;34.66;97279.09;5043421;28;20550;-61
2023/08/13 10:25:30;;;;;;;1.73;1.73;;;;;;;29.43;34.94;97298.31;5042336;28;20048;-61
2023/08/13 10:27:57;;;;;;;2.03;2.03;;;;;;;29.02;35.54;97296.41;5042676;28;20060;-60
2023/08/13 10:30:24;;;;;;;1.88;1.88;;;;;;;29.78;34.98;97296.44;5058121;28;20096;-62
2023/08/13 10:32:56;;;;;;;1.70;1.70;;;;;;;29.98;34.38;97290.81;5043515;28;20079;-62
2023/08/13 10:35:34;;;;;;;1.65;1.65;;;;;;;29.42;35.05;97296.72;5043800;28;20380;-62
2023/08/13 10:38:03;;;;;;;1.85;1.85;;;;;;;29.59;34.76;97295.00;5043589;28;20053;-62
2023/08/13 10:40:30;;;;;;;1.90;1.90;;;;;;;29.53;35.42;97291.22;5041404;28;20151;-61
2023/08/13 10:42:58;;;;;;;1.80;1.80;;;;;;;29.77;34.51;97289.13;5042270;28;20137;-62
2023/08/13 10:45:27;;;;;;;1.90;1.90;;;;;;;29.79;34.06;97292.28;5041792;28;20508;-62
2023/08/13 10:47:59;;;;;;;1.98;1.98;;;;;;;29.12;34.45;97289.38;5033945;28;20048;-62
2023/08/13 10:50:43;;;;;;;1.73;1.73;;;;;;;28.92;35.58;97283.47;5042132;28;20092;-63
2023/08/13 10:53:12;;;;;;;1.85;1.85;;;;;;;28.45;35.24;97229.28;5042583;28;20538;-61
2023/08/13 10:55:48;;;;;;;1.60;1.60;;;;;;;29.20;35.10;97279.16;5043198;28;20049;-62
2023/08/13 10:58:26;;;;;;;1.70;1.70;;;;;;;29.11;34.85;97256.41;5042901;28;20049;-63
2023/08/13 11:01:16;;;;;;;1.88;1.88;;;;;;;28.89;35.33;97235.97;5023386;28;20100;-62
2023/08/13 11:03:51;;;;;;;1.63;1.63;;;;;;;29.57;34.29;97286.13;5022993;28;20097;-62
2023/08/13 11:06:23;;;;;;;1.63;1.63;;;;;;;29.25;34.25;97298.47;5022330;28;20123;-61
2023/08/13 11:08:49;;;;;;;1.85;1.85;;;;;;;29.15;34.65;97259.88;5022645;28;20056;-62
2023/08/13 11:11:17;;;;;;;1.90;1.90;;;;;;;29.44;34.83;97288.47;5022895;28;20056;-62
2023/08/13 11:13:44;;;;;;;1.83;1.83;;;;;;;29.43;34.22;97286.91;5022836;28;20053;-63
2023/08/13 11:16:12;;;;;;;1.70;1.70;;;;;;;29.47;34.36;97282.56;5021269;28;20523;-62
2023/08/13 11:18:40;;;;;;;1.67;1.67;;;;;;;29.63;34.41;97277.66;5021320;28;20053;-62
2023/08/13 11:21:07;;;;;;;1.90;1.90;;;;;;;29.97;34.29;97274.16;5022885;28;20327;-62
2023/08/13 11:23:34;;;;;;;2.00;2.00;;;;;;;29.53;34.31;97214.13;5022824;28;20050;-64
2023/08/13 11:26:03;;;;;;;1.70;1.70;;;;;;;29.88;34.32;97260.75;5021301;28;20336;-62
2023/08/13 11:28:30;;;;;;;1.63;1.63;;;;;;;29.83;34.90;97254.94;5021713;28;20049;-62
2023/08/13 11:30:57;;;;;;;1.80;1.80;;;;;;;29.75;33.92;97257.41;5007515;28;20057;-63
2023/08/13 11:33:24;;;;;;;2.00;2.00;;;;;;;30.12;33.48;97260.63;5003209;28;20056;-63
2023/08/13 11:35:53;;;;;;;1.98;1.98;;;;;;;29.85;33.69;97213.16;5002388;28;20163;-61
2023/08/13 11:38:20;;;;;;;2.00;2.00;;;;;;;30.08;33.29;97240.03;5001757;28;20050;-62